Time;durP1;ratioP1;P1;durP2;ratioP2;P2;SDS_P1;SDS_P2;PMS_P1;PMS_P2;Temp;Humidity;BMP_temperature;BMP_pressure;BME280_temperature;BME280_humidity;BME280_pressure;Samples;Min_cycle;Max_cycle;Signal;HPM_P1;HPM_P2
2023/12/21 00:00:07;;;;;;;;;1.00;1.00;;;;;13.38;82.92;100978.94;4864253;29;45497;-81
2023/12/21 00:02:34;;;;;;;;;1.00;1.00;;;;;13.41;82.69;100976.28;4865690;29;45467;-80
2023/12/21 00:04:59;;;;;;;;;3.25;1.75;;;;;13.33;83.01;100964.66;4866266;29;45409;-80
2023/12/21 00:07:25;;;;;;;;;2.75;2.75;;;;;13.39;83.18;100973.63;4849807;29;52869;-79
2023/12/21 00:09:50;;;;;;;;;2.50;1.00;;;;;13.35;83.34;100969.16;4865049;29;45434;-81
2023/12/21 00:12:15;;;;;;;;;4.75;1.75;;;;;13.37;83.14;100959.34;4866987;29;45430;-81
2023/12/21 00:14:41;;;;;;;;;3.75;2.00;;;;;13.40;83.67;100958.47;4865923;29;45499;-80
2023/12/21 00:17:06;;;;;;;;;1.00;0.50;;;;;13.30;83.68;100948.63;4864414;29;46831;-81
2023/12/21 00:19:32;;;;;;;;;4.00;2.00;;;;;13.27;83.60;100946.81;4861982;29;45449;-81
2023/12/21 00:21:57;;;;;;;;;2.25;0.50;;;;;13.39;83.73;100954.91;4863237;29;45389;-80
2023/12/21 00:24:23;;;;;;;;;2.00;0.75;;;;;13.37;83.63;100945.09;4862805;29;45534;-81
2023/12/21 00:26:48;;;;;;;;;1.00;1.00;;;;;13.33;84.01;100924.59;4845762;29;46865;-81
2023/12/21 00:29:13;;;;;;;;;2.00;2.00;;;;;13.25;84.31;100924.53;4865692;29;45427;-80
2023/12/21 00:31:39;;;;;;;;;2.33;2.33;;;;;13.31;84.52;100927.28;4865909;29;45417;-80
2023/12/21 00:34:06;;;;;;;;;3.25;0.50;;;;;13.36;85.13;100930.84;4849659;29;45453;-80
2023/12/21 00:36:31;;;;;;;;;3.00;2.00;;;;;13.24;84.93;100933.41;4864817;29;47327;-81
2023/12/21 00:38:57;;;;;;;;;2.00;0.25;;;;;13.25;84.95;100924.53;4865467;28;45597;-81
2023/12/21 00:41:22;;;;;;;;;2.00;2.00;;;;;13.22;84.94;100905.81;4865859;29;45381;-80
2023/12/21 00:43:47;;;;;;;;;1.00;1.00;;;;;13.26;85.16;100910.28;4864603;29;45701;-80
2023/12/21 00:46:13;;;;;;;;;3.33;1.67;;;;;13.31;84.92;100913.00;4850153;29;47076;-79
2023/12/21 00:48:38;;;;;;;;;2.00;0.67;;;;;13.25;85.92;100908.50;4850323;29;45648;-79
2023/12/21 00:51:05;;;;;;;;;1.67;0.00;;;;;13.28;85.40;100912.97;4849574;29;45483;-79
2023/12/21 00:53:30;;;;;;;;;3.00;3.00;;;;;13.27;85.34;100906.75;4864248;29;45482;-80
2023/12/21 00:55:55;;;;;;;;;5.00;2.33;;;;;13.29;85.40;100905.00;4866486;29;45447;-80
2023/12/21 00:58:21;;;;;;;;;4.00;2.00;;;;;13.25;85.85;100892.47;4850983;29;46514;-81
2023/12/21 01:00:48;;;;;;;;;3.00;2.50;;;;;13.38;85.48;100880.09;4850913;29;45535;-81
2023/12/21 01:03:13;;;;;;;;;1.00;1.00;;;;;13.21;85.65;100882.66;4866846;28;44920;-80
2023/12/21 01:05:39;;;;;;;;;5.00;1.00;;;;;13.26;85.67;100888.91;4867947;29;46577;-80
2023/12/21 01:08:05;;;;;;;;;1.25;0.00;;;;;13.27;85.61;100880.03;4850475;29;45910;-80
2023/12/21 01:10:31;;;;;;;;;6.67;1.67;;;;;13.30;85.49;100900.53;4865542;29;45733;-81
2023/12/21 01:12:57;;;;;;;;;5.00;2.67;;;;;13.30;85.88;100896.09;4850581;29;45528;-81
2023/12/21 01:15:22;;;;;;;;;3.00;1.00;;;;;13.30;85.66;100874.72;4863966;29;46604;-81
2023/12/21 01:17:47;;;;;;;;;4.67;3.33;;;;;13.25;85.91;100865.78;4866646;29;45413;-81
2023/12/21 01:20:13;;;;;;;;;3.50;1.00;;;;;13.30;85.58;100869.38;4849217;29;44870;-81
2023/12/21 01:22:39;;;;;;;;;2.50;1.00;;;;;13.40;86.22;100871.19;4867158;29;45570;-81
2023/12/21 01:25:05;;;;;;;;;2.00;1.00;;;;;13.25;86.81;100867.53;4865504;29;45507;-80
2023/12/21 01:27:30;;;;;;;;;2.75;2.00;;;;;13.19;87.31;100861.28;4865536;29;44883;-81
2023/12/21 01:29:56;;;;;;;;;4.00;1.00;;;;;13.20;87.32;100859.50;4866844;29;45385;-80
2023/12/21 01:32:21;;;;;;;;;1.50;0.00;;;;;13.20;87.13;100863.06;4867150;29;45012;-80
2023/12/21 01:34:48;;;;;;;;;1.75;1.75;;;;;13.36;87.16;100852.50;4866246;29;48311;-80
2023/12/21 01:37:13;;;;;;;;;1.75;1.00;;;;;13.21;87.38;100842.59;4866312;29;45387;-81
2023/12/21 01:39:39;;;;;;;;;2.33;1.00;;;;;13.23;87.61;100847.94;4863990;28;45306;-79
2023/12/21 01:42:04;;;;;;;;;1.75;1.00;;;;;13.21;87.64;100838.16;4865917;29;45336;-80
2023/12/21 01:44:29;;;;;;;;;1.00;1.00;;;;;13.23;87.80;100835.50;4866852;29;46076;-79
2023/12/21 01:46:55;;;;;;;;;0.00;0.00;;;;;13.25;88.06;100828.38;4848929;29;57224;-80
2023/12/21 01:49:21;;;;;;;;;0.75;0.75;;;;;13.19;88.55;100828.34;4849219;29;45448;-80
2023/12/21 01:51:47;;;;;;;;;2.00;2.00;;;;;13.23;87.98;100830.16;4865901;29;45440;-80
2023/12/21 01:54:19;;;;;;;;;0.50;0.00;;;;;13.16;88.08;100814.97;4865990;29;46517;-81
2023/12/21 01:56:45;;;;;;;;;1.00;1.00;;;;;13.23;88.20;100811.47;4865329;29;45418;-79
2023/12/21 01:59:11;;;;;;;;;1.00;0.00;;;;;13.36;88.30;100805.28;4867226;29;45346;-80
2023/12/21 02:01:39;;;;;;;;;0.75;0.75;;;;;13.32;88.99;100791.94;4878738;29;45534;-81
2023/12/21 02:04:05;;;;;;;;;0.50;0.50;;;;;13.26;89.78;100800.78;4888828;29;45720;-82
2023/12/21 02:06:30;;;;;;;;;1.50;1.50;;;;;13.28;89.95;100806.13;4889087;29;44831;-82
2023/12/21 02:08:56;;;;;;;;;2.00;1.75;;;;;13.25;89.46;100791.00;4889513;29;44845;-82
2023/12/21 02:11:21;;;;;;;;;1.50;0.75;;;;;13.28;90.02;100785.63;4888721;29;44808;-82
2023/12/21 02:13:47;;;;;;;;;0.75;0.75;;;;;13.23;89.59;100787.41;4871541;29;46874;-81
2023/12/21 02:16:19;;;;;;;;;1.50;1.50;;;;;13.40;90.10;100793.72;4872441;29;44781;-81
2023/12/21 02:18:45;;;;;;;;;0.50;0.50;;;;;13.27;90.32;100773.19;4887480;28;44854;-82
2023/12/21 02:21:12;;;;;;;;;0.00;0.00;;;;;13.35;90.72;100786.59;4872775;29;45328;-82
2023/12/21 02:23:42;;;;;;;;;0.00;0.00;;;;;13.25;91.09;100774.97;4888416;29;45209;-81
2023/12/21 02:26:08;;;;;;;;;1.00;1.00;;;;;13.25;90.22;100772.28;4888888;29;44897;-81
2023/12/21 02:28:34;;;;;;;;;1.00;1.00;;;;;13.19;90.12;100761.59;4887985;29;44820;-82
2023/12/21 02:31:00;;;;;;;;;0.00;0.00;;;;;13.26;91.87;100776.72;4871558;29;44812;-81
2023/12/21 02:33:25;;;;;;;;;0.00;0.00;;;;;13.27;91.27;100778.53;4888345;29;45187;-81
2023/12/21 02:36:28;;;;;;;;;0.25;0.25;;;;;13.52;90.50;100787.53;4871289;29;45061;-81
2023/12/21 02:38:54;;;;;;;;;1.00;1.00;;;;;13.25;91.14;100787.41;4887775;28;45033;-82
2023/12/21 02:41:19;;;;;;;;;0.00;0.00;;;;;13.27;90.98;100781.19;4888050;28;44873;-82
2023/12/21 02:43:45;;;;;;;;;2.00;0.00;;;;;13.26;90.95;100771.38;4870798;29;45308;-82
2023/12/21 02:46:10;;;;;;;;;1.50;1.00;;;;;13.31;90.91;100774.09;4886258;28;45713;-82
2023/12/21 02:48:35;;;;;;;;;0.00;0.00;;;;;13.28;90.70;100763.38;4871809;29;45021;-82
2023/12/21 02:51:01;;;;;;;;;0.75;0.75;;;;;13.32;91.30;100763.44;4887137;29;44810;-83
2023/12/21 02:53:26;;;;;;;;;2.25;2.25;;;;;13.39;91.55;100756.31;4888271;29;45342;-82
2023/12/21 02:55:51;;;;;;;;;0.00;0.00;;;;;13.42;91.16;100766.16;4888145;29;44991;-82
2023/12/21 02:58:17;;;;;;;;;0.00;0.00;;;;;13.39;91.37;100757.22;4888435;29;44769;-82
2023/12/21 03:00:42;;;;;;;;;0.00;0.00;;;;;13.39;91.06;100751.88;4888174;29;44854;-82
2023/12/21 03:03:08;;;;;;;;;1.00;1.00;;;;;13.36;90.75;100743.84;4888246;29;44986;-82
2023/12/21 03:05:33;;;;;;;;;1.00;1.00;;;;;13.45;91.47;100758.13;4888368;29;44909;-82
2023/12/21 03:07:59;;;;;;;;;0.00;0.00;;;;;13.46;91.22;100755.47;4887565;29;44783;-82
2023/12/21 03:10:24;;;;;;;;;1.25;1.00;;;;;13.45;90.99;100744.75;4887977;28;45214;-82
2023/12/21 03:12:50;;;;;;;;;0.00;0.00;;;;;13.44;90.81;100734.97;4886765;28;47243;-82
2023/12/21 03:15:15;;;;;;;;;0.00;0.00;;;;;13.45;90.99;100737.63;4887924;29;44797;-81
2023/12/21 03:17:40;;;;;;;;;0.00;0.00;;;;;13.52;91.05;100734.09;4888477;29;45002;-82
2023/12/21 03:20:07;;;;;;;;;0.50;0.00;;;;;13.54;91.32;100745.69;4888258;29;44780;-82
2023/12/21 03:22:34;;;;;;;;;0.00;0.00;;;;;13.64;91.38;100735.91;4887935;29;45670;-82
2023/12/21 03:25:00;;;;;;;;;0.00;0.00;;;;;13.56;90.77;100735.00;4871642;29;45431;-82
2023/12/21 03:27:25;;;;;;;;;1.50;0.50;;;;;13.58;91.32;100735.91;4887996;29;45228;-83
2023/12/21 03:29:50;;;;;;;;;0.00;0.00;;;;;13.55;91.08;100725.19;4872222;29;44901;-82
2023/12/21 03:32:16;;;;;;;;;0.50;0.00;;;;;13.61;91.17;100717.19;4887553;29;45136;-82
2023/12/21 03:34:44;;;;;;;;;0.00;0.00;;;;;13.60;91.08;100723.44;4887905;29;44745;-82
2023/12/21 03:37:09;;;;;;;;;0.25;0.00;;;;;13.59;91.86;100714.53;4888937;29;44933;-82
2023/12/21 03:39:35;;;;;;;;;0.00;0.00;;;;;13.61;91.44;100714.50;4889030;29;44888;-82
2023/12/21 03:42:02;;;;;;;;;1.00;0.00;;;;;13.61;91.38;100709.16;4888406;29;45166;-82
2023/12/21 03:44:27;;;;;;;;;0.00;0.00;;;;;13.61;91.56;100709.16;4871049;29;44798;-82
2023/12/21 03:46:53;;;;;;;;;1.00;0.00;;;;;13.60;91.45;100702.06;4888229;29;45044;-81
2023/12/21 03:52:46;;;;;;;;;0.00;0.00;;;;;13.80;91.32;100686.03;4888451;29;44853;-82
2023/12/21 03:55:12;;;;;;;;;0.00;0.00;;;;;13.59;91.74;100679.78;4872058;29;47110;-82
2023/12/21 03:57:37;;;;;;;;;0.00;0.00;;;;;13.60;92.06;100667.31;4886868;28;44914;-82
2023/12/21 04:00:03;;;;;;;;;0.00;0.00;;;;;13.59;93.24;100662.84;4888396;29;44887;-82
2023/12/21 04:02:36;;;;;;;;;1.00;0.00;;;;;13.73;92.87;100660.19;4871808;29;48220;-82
2023/12/21 04:05:02;;;;;;;;;0.00;0.00;;;;;13.48;92.89;100637.91;4890564;29;45234;-81
2023/12/21 04:07:27;;;;;;;;;0.00;0.00;;;;;13.53;93.13;100628.09;4890336;28;44729;-82
2023/12/21 04:09:53;;;;;;;;;0.50;0.50;;;;;13.55;92.96;100626.31;4890763;29;44828;-82
2023/12/21 04:12:18;;;;;;;;;0.00;0.00;;;;;13.54;93.21;100613.88;4891178;29;45174;-80
2023/12/21 04:14:44;;;;;;;;;0.00;0.00;;;;;13.56;93.04;100609.41;4906405;23;44910;-80
2023/12/21 04:17:10;;;;;;;;;0.00;0.00;;;;;13.52;92.77;100608.53;4892844;28;44890;-81
2023/12/21 04:19:36;;;;;;;;;0.00;0.00;;;;;13.54;92.68;100600.50;4893896;28;44873;-81
2023/12/21 04:22:01;;;;;;;;;0.00;0.00;;;;;13.57;92.50;100605.84;4909437;28;45004;-82
2023/12/21 04:24:26;;;;;;;;;0.00;0.00;;;;;13.59;92.34;100602.28;4909731;28;44947;-81
2023/12/21 04:26:55;;;;;;;;;0.50;0.00;;;;;13.84;91.88;100606.72;4909729;28;44989;-82
2023/12/21 04:29:20;;;;;;;;;0.00;0.00;;;;;13.65;91.60;100597.81;4910000;28;44804;-81
2023/12/21 04:34:27;;;;;;;;;0.00;0.00;;;;;13.70;91.35;100612.97;4957131;23;44895;-82
2023/12/21 04:36:52;;;;;;;;;0.00;0.00;;;;;13.71;91.12;100604.03;4890226;29;44850;-82
2023/12/21 04:39:18;;;;;;;;;0.00;0.00;;;;;13.66;90.96;100595.16;4875009;29;45241;-81
2023/12/21 04:46:54;;;;;;;;;0.00;0.00;;;;;13.78;91.23;100610.28;5435361;23;46487;-82
2023/12/21 04:49:22;;;;;;;;;0.00;0.00;;;;;13.77;91.67;100593.34;4892681;28;44829;-82
2023/12/21 04:51:48;;;;;;;;;1.00;0.00;;;;;13.72;91.97;100584.47;4891179;28;46887;-82
2023/12/21 04:54:14;;;;;;;;;0.00;0.00;;;;;13.65;92.57;100585.34;4892725;28;44873;-81
2023/12/21 04:57:29;;;;;;;;;0.00;0.00;;;;;13.90;92.29;100590.69;4891961;28;44757;-82
2023/12/21 04:59:54;;;;;;;;;0.00;0.00;;;;;13.62;93.15;100588.03;4910090;29;44902;-81
2023/12/21 05:02:20;;;;;;;;;0.00;0.00;;;;;13.64;92.76;100591.59;4908023;28;60002;-81
2023/12/21 05:04:45;;;;;;;;;0.00;0.00;;;;;13.69;92.83;100583.56;4907813;28;45070;-82
2023/12/21 05:07:11;;;;;;;;;0.25;0.00;;;;;13.66;92.64;100579.13;4909995;29;45030;-82
2023/12/21 05:09:37;;;;;;;;;0.00;0.00;;;;;13.76;92.73;100578.22;4891813;28;44835;-82
2023/12/21 05:12:03;;;;;;;;;0.00;0.00;;;;;13.64;92.52;100574.69;4892182;28;47280;-81
2023/12/21 05:22:14;;;;;;;;;0.00;0.00;;;;;13.70;92.16;100575.56;5583864;23;46187;-81
2023/12/21 05:24:40;;;;;;;;;0.00;0.00;;;;;13.76;92.17;100580.88;4908726;29;45527;-81
2023/12/21 05:27:05;;;;;;;;;0.00;0.00;;;;;13.72;92.17;100573.78;4908988;28;44910;-81
2023/12/21 05:29:31;;;;;;;;;0.00;0.00;;;;;13.70;92.44;100570.22;4909102;29;44815;-82
2023/12/21 05:31:57;;;;;;;;;0.75;0.00;;;;;13.77;92.71;100566.63;4909133;29;46592;-81
2023/12/21 05:36:59;;;;;;;;;0.00;0.00;;;;;13.78;93.44;100572.88;5422914;23;46472;-82
2023/12/21 05:39:25;;;;;;;;;0.00;0.00;;;;;13.77;92.66;100577.31;4909388;29;44802;-81
2023/12/21 05:41:51;;;;;;;;;0.00;0.00;;;;;13.81;93.01;100583.53;4892311;28;47242;-81
2023/12/21 05:44:16;;;;;;;;;0.00;0.00;;;;;13.79;93.06;100567.53;4908269;29;45538;-81
2023/12/21 05:57:03;;;;;;;;;0.00;0.00;;;;;13.86;93.13;100522.06;5397664;23;45633;-82
2023/12/21 05:59:29;;;;;;;;;0.00;0.00;;;;;13.88;93.15;100506.91;4909391;29;45285;-81
2023/12/21 06:01:55;;;;;;;;;0.00;0.00;;;;;13.91;93.13;100514.91;5667965;23;47823;-80
2023/12/21 06:04:20;;;;;;;;;0.00;0.00;;;;;13.92;92.68;100508.69;4889647;29;44886;-81
2023/12/21 06:06:46;;;;;;;;;0.00;0.00;;;;;13.90;92.62;100491.75;4890243;29;44762;-82
2023/12/21 06:14:22;;;;;;;;;0.00;0.00;;;;;13.91;92.49;100514.91;5307167;23;45719;-82
2023/12/21 06:16:47;;;;;;;;;0.00;0.00;;;;;13.91;92.35;100509.56;4873686;28;44917;-83
2023/12/21 06:19:15;;;;;;;;;0.00;0.00;;;;;13.94;92.07;100498.88;4889972;29;45086;-83
2023/12/21 06:21:40;;;;;;;;;0.00;0.00;;;;;13.96;91.75;100494.41;4873494;29;45414;-82
2023/12/21 06:24:06;;;;;;;;;0.00;0.00;;;;;14.03;91.77;100501.50;4889163;29;44918;-81
2023/12/21 06:26:37;;;;;;;;;0.00;0.00;;;;;13.96;91.56;100508.66;4889011;29;44960;-81
2023/12/21 06:29:03;;;;;;;;;0.00;0.00;;;;;13.94;91.57;100522.94;4889902;29;44866;-81
2023/12/21 06:31:28;;;;;;;;;0.00;0.00;;;;;13.94;91.82;100504.22;4888572;29;47017;-82
2023/12/21 06:36:29;;;;;;;;;0.00;0.00;;;;;13.94;91.32;100521.16;4967138;23;44993;-82
2023/12/21 06:38:54;;;;;;;;;0.00;0.00;;;;;13.95;91.04;100528.25;4891746;28;45407;-81
2023/12/21 07:00:39;;;;;;;;;0.00;0.00;;;;;14.22;91.07;100526.41;509926;26;45131;-83
2023/12/21 07:03:33;;;;;;;;;0.00;0.00;;;;;14.23;91.14;100505.88;4975809;23;46431;-84
2023/12/21 07:05:59;;;;;;;;;0.00;0.00;;;;;14.05;91.62;100526.44;4859426;29;45416;-82
2023/12/21 07:08:25;;;;;;;;;0.00;0.00;;;;;14.01;91.67;100522.88;4858941;29;45407;-82
2023/12/21 07:10:53;;;;;;;;;0.00;0.00;;;;;14.03;91.73;100546.06;4848196;29;44996;-84
2023/12/21 07:13:18;;;;;;;;;0.00;0.00;;;;;13.99;91.67;100540.72;4864355;29;47015;-83
2023/12/21 07:15:44;;;;;;;;;0.00;0.00;;;;;14.02;92.09;100531.81;4848261;29;45013;-82
2023/12/21 07:18:09;;;;;;;;;0.00;0.00;;;;;13.92;92.05;100540.78;4864744;29;45302;-82
2023/12/21 07:20:35;;;;;;;;;0.00;0.00;;;;;13.97;92.02;100539.84;4851038;29;44843;-83
2023/12/21 07:23:16;;;;;;;;;0.00;0.00;;;;;14.24;91.99;100540.66;4855925;29;47485;-83
2023/12/21 07:25:42;;;;;;;;;0.00;0.00;;;;;14.01;92.33;100543.41;4857687;29;45546;-82
2023/12/21 07:28:08;;;;;;;;;0.00;0.00;;;;;14.06;92.33;100546.97;4843284;29;44915;-83
2023/12/21 07:30:33;;;;;;;;;0.00;0.00;;;;;14.05;92.86;100549.63;4849100;29;44951;-83
2023/12/21 07:32:58;;;;;;;;;0.00;0.00;;;;;14.01;92.51;100548.75;4814480;29;46835;-83
2023/12/21 07:35:24;;;;;;;;;0.00;0.00;;;;;13.94;92.38;100526.50;4812324;29;45477;-82
2023/12/21 07:37:50;;;;;;;;;0.00;0.00;;;;;13.98;92.67;100522.91;4797032;29;45422;-81
2023/12/21 07:40:18;;;;;;;;;0.00;0.00;;;;;13.98;92.95;100485.47;4809641;29;45871;-81
2023/12/21 07:42:44;;;;;;;;;0.00;0.00;;;;;13.84;93.14;100473.06;4808466;29;45382;-81
2023/12/21 07:45:12;;;;;;;;;0.00;0.00;;;;;13.97;99.88;100512.22;4793534;29;45643;-81
2023/12/21 07:47:37;;;;;;;;;0.00;0.00;;;;;13.86;93.84;100473.97;4810379;29;45560;-81
2023/12/21 07:50:03;;;;;;;;;0.00;0.00;;;;;13.99;93.44;100497.06;4810170;29;45417;-81
2023/12/21 07:55:51;;;;;;;;;0.00;0.00;;;;;14.13;93.21;100515.72;4810970;29;45409;-81
2023/12/21 07:58:16;;;;;;;;;0.00;0.00;;;;;14.11;93.06;100502.34;4816880;29;45436;-82
2023/12/21 08:00:41;;;;;;;;;0.00;0.00;;;;;14.14;93.07;100505.03;4801891;29;44824;-82
2023/12/21 08:03:08;;;;;;;;;0.00;0.00;;;;;14.15;93.12;100509.47;4816205;29;47008;-82
2023/12/21 08:05:33;;;;;;;;;0.25;0.00;;;;;14.16;93.26;100497.88;4816508;29;44968;-82
2023/12/21 08:07:59;;;;;;;;;0.00;0.00;;;;;14.16;93.07;100505.91;4817419;29;45364;-81
2023/12/21 08:10:24;;;;;;;;;0.00;0.00;;;;;14.14;93.23;100497.00;4817042;29;44874;-83
2023/12/21 08:12:49;;;;;;;;;0.00;0.00;;;;;14.13;93.15;100484.50;4804533;29;47028;-81
2023/12/21 08:15:15;;;;;;;;;0.00;0.00;;;;;14.16;93.29;100476.50;4816949;29;45765;-82
2023/12/21 08:17:43;;;;;;;;;0.00;0.00;;;;;14.35;93.46;100473.72;4813296;29;45187;-82
2023/12/21 08:20:15;;;;;;;;;0.00;0.00;;;;;14.35;92.93;100471.03;4831207;29;44831;-82
2023/12/21 08:22:40;;;;;;;;;0.00;0.00;;;;;14.26;92.79;100485.38;4827816;29;45572;-82
2023/12/21 08:25:07;;;;;;;;;0.00;0.00;;;;;14.26;93.08;100463.97;4812793;29;45436;-82
2023/12/21 08:27:34;;;;;;;;;0.00;0.00;;;;;14.30;93.22;100452.34;4829460;29;45295;-82
2023/12/21 08:30:00;;;;;;;;;0.00;0.00;;;;;14.29;93.47;100468.41;4823453;29;45512;-82
2023/12/21 08:32:25;;;;;;;;;0.00;0.00;;;;;14.29;94.84;100463.06;4828740;29;46012;-82
2023/12/21 08:34:51;;;;;;;;;0.00;0.00;;;;;14.23;93.78;100449.72;4812843;29;45577;-81
2023/12/21 08:38:16;;;;;;;;;0.00;0.00;;;;;14.50;93.34;100449.56;4816017;29;45368;-81
2023/12/21 08:40:50;;;;;;;;;1.00;0.00;;;;;14.23;93.30;100441.69;4806417;29;45007;-81
2023/12/21 08:43:27;;;;;;;;;0.00;0.00;;;;;14.39;93.47;100484.38;4798890;29;46614;-83
2023/12/21 08:45:53;;;;;;;;;0.00;0.00;;;;;14.27;92.69;100462.16;4781831;29;45196;-82
2023/12/21 08:48:19;;;;;;;;;0.00;0.00;;;;;14.33;92.60;100476.38;4792798;29;45398;-82
2023/12/21 08:50:45;;;;;;;;;0.00;0.00;;;;;14.23;92.56;100442.56;4791027;29;45596;-80
2023/12/21 08:53:13;;;;;;;;;0.25;0.00;;;;;14.54;92.48;100459.34;4793659;29;46269;-81
2023/12/21 08:55:39;;;;;;;;;0.00;0.00;;;;;14.49;92.26;100479.00;4793615;29;45676;-82
2023/12/21 08:58:04;;;;;;;;;0.00;0.00;;;;;14.41;92.58;100457.63;4791009;29;45813;-81
2023/12/21 09:00:30;;;;;;;;;0.00;0.00;;;;;14.38;92.81;100457.63;4790607;29;45376;-81
2023/12/21 09:03:04;;;;;;;;;0.00;0.00;;;;;14.40;92.35;100450.47;4794340;29;45368;-81
2023/12/21 09:05:39;;;;;;;;;0.00;0.00;;;;;14.55;92.65;100450.38;4800867;29;45421;-81
2023/12/21 09:08:08;;;;;;;;;0.00;0.00;;;;;14.58;92.89;100485.22;4778383;29;45292;-81
2023/12/21 09:10:33;;;;;;;;;0.00;0.00;;;;;14.47;92.90;100462.06;4807334;29;45487;-82
2023/12/21 09:12:59;;;;;;;;;0.00;0.00;;;;;14.68;92.50;100477.09;4826474;29;47372;-82
2023/12/21 09:15:26;;;;;;;;;0.25;0.00;;;;;14.59;93.82;100462.00;4811615;29;45420;-81
2023/12/21 09:17:53;;;;;;;;;0.00;0.00;;;;;14.51;93.51;100447.75;4829796;29;45549;-81
2023/12/21 09:20:18;;;;;;;;;0.00;0.00;;;;;14.63;92.87;100473.59;4833442;29;45447;-82
2023/12/21 09:27:57;;;;;;;;;0.00;0.00;;;;;14.71;93.28;100480.66;4955354;23;45397;-83
2023/12/21 09:30:26;;;;;;;;;0.00;0.00;;;;;14.64;93.26;100472.66;4879628;29;45653;-82
2023/12/21 09:33:02;;;;;;;;;0.00;0.00;;;;;14.80;93.63;100482.38;4901915;23;45495;-81
2023/12/21 09:35:29;;;;;;;;;0.25;0.00;;;;;14.82;94.09;100480.56;4862746;29;45399;-84
2023/12/21 09:37:55;;;;;;;;;0.00;0.00;;;;;14.70;94.14;100477.97;4846970;29;44889;-81
2023/12/21 09:40:34;;;;;;;;;0.25;0.25;;;;;14.86;94.07;100474.28;4832548;29;44904;-83
2023/12/21 09:50:55;;;;;;;;;0.00;0.00;;;;;14.90;94.21;100462.66;5295427;23;45105;-84
2023/12/21 09:55:57;;;;;;;;;2.00;0.00;;;;;14.81;94.07;100468.09;5120959;23;44959;-81
2023/12/21 09:58:23;;;;;;;;;0.50;0.50;;;;;14.72;94.23;100436.03;4899365;28;45436;-82
2023/12/21 10:01:01;;;;;;;;;0.00;0.00;;;;;14.97;94.28;100442.97;5296380;23;45370;-81
2023/12/21 10:03:33;;;;;;;;;0.00;0.00;;;;;14.79;94.54;100449.34;4890935;28;45300;-84
2023/12/21 10:06:04;;;;;;;;;0.00;0.00;;;;;14.77;94.50;100437.78;4891429;29;45454;-83
2023/12/21 10:08:35;;;;;;;;;1.25;1.25;;;;;14.74;94.33;100412.81;4892651;28;45879;-83
2023/12/21 10:13:57;;;;;;;;;3.00;0.25;;;;;14.99;93.64;100422.41;3065662;23;46520;-82
2023/12/21 10:16:26;;;;;;;;;0.00;0.00;;;;;14.78;94.54;100427.94;4889691;29;45579;-84
2023/12/21 10:18:52;;;;;;;;;0.25;0.25;;;;;14.78;94.65;100430.63;4889108;29;44813;-83
2023/12/21 10:21:20;;;;;;;;;0.00;0.00;;;;;14.52;95.04;100396.91;4889483;29;45501;-84
2023/12/21 10:36:17;;;;;;;;;0.00;0.00;;;;;14.76;95.31;100394.94;5038929;23;46058;-83
2023/12/21 10:39:06;;;;;;;;;0.00;0.00;;;;;14.95;95.03;100444.78;4876181;29;45576;-83
2023/12/21 10:45:24;;;;;;;;;0.00;0.00;;;;;14.53;96.12;100446.84;4821440;29;45490;-83
2023/12/21 10:48:00;;;;;;;;;0.75;0.00;;;;;14.84;96.08;100468.06;4817734;29;45341;-83
2023/12/21 10:51:17;;;;;;;;;0.25;0.25;;;;;14.58;96.78;100433.44;4785130;29;45450;-83
2023/12/21 10:54:12;;;;;;;;;0.00;0.00;;;;;14.83;96.35;100455.59;4803945;29;45546;-84
2023/12/21 10:57:11;;;;;;;;;0.00;0.00;;;;;14.82;96.17;100448.44;4821772;29;45563;-83
2023/12/21 10:59:43;;;;;;;;;0.75;0.50;;;;;14.71;97.33;100444.97;4795438;29;45464;-82
2023/12/21 11:02:32;;;;;;;;;0.00;0.00;;;;;14.90;97.68;100446.59;4801571;29;45750;-86
2023/12/21 11:05:32;;;;;;;;;;;;;;;;;;;;;
2023/12/21 11:08:54;;;;;;;;;1.00;1.00;;;;;14.80;95.41;100400.28;4897187;28;65291;-83
2023/12/21 11:14:10;;;;;;;;;2.50;2.00;;;;;14.68;94.97;100395.00;4895404;29;45518;-83
2023/12/21 11:16:58;;;;;;;;;3.75;3.75;;;;;14.67;95.29;100358.44;4903281;29;45459;-81
2023/12/21 11:19:34;;;;;;;;;2.50;2.50;;;;;14.78;94.82;100371.72;4896815;28;44978;-83
2023/12/21 11:22:29;;;;;;;;;3.25;2.00;;;;;15.05;95.90;100408.09;4889269;29;47379;-83
2023/12/21 11:28:34;;;;;;;;;1.00;1.00;;;;;15.08;95.00;100420.56;4903725;29;44816;-82
2023/12/21 11:31:20;;;;;;;;;1.75;1.75;;;;;15.15;94.67;100390.13;4878940;28;45862;-82
2023/12/21 11:33:46;;;;;;;;;2.00;2.00;;;;;14.85;94.70;100362.75;4888734;29;47118;-83
2023/12/21 11:42:54;;;;;;;;;4.75;3.75;;;;;15.24;95.29;100328.41;4094922;23;46531;-84
2023/12/21 13:05:57;;;;;;;;;2.75;1.00;;;;;14.75;99.35;100299.50;5275979;23;46620;-83
2023/12/21 13:08:23;;;;;;;;;1.25;1.25;;;;;14.35;100.00;100294.47;4869789;29;45448;-83
2023/12/21 13:10:48;;;;;;;;;3.25;2.00;;;;;14.33;100.00;100320.34;4858418;29;44995;-84
2023/12/21 13:14:07;;;;;;;;;;;;;;;;;;;;;
2023/12/21 13:16:50;;;;;;;;;2.00;2.00;;;;;14.14;100.00;100309.81;4880329;29;72436;-83
2023/12/21 13:20:09;;;;;;;;;1.00;1.00;;;;;14.39;100.00;100337.22;4868384;29;44898;-84
2023/12/21 13:23:08;;;;;;;;;2.00;1.00;;;;;14.27;100.00;100317.72;4871639;29;45914;-83
2023/12/21 13:35:56;;;;;;;;;3.67;3.00;;;;;14.06;100.00;100329.44;4887719;29;45476;-83
2023/12/21 13:38:37;;;;;;;;;6.75;4.50;;;;;14.31;100.00;100346.22;4868827;29;47958;-82
2023/12/21 13:41:09;;;;;;;;;3.67;2.67;;;;;13.97;100.00;100330.41;4875632;29;45587;-83
2023/12/21 13:43:48;;;;;;;;;2.67;2.33;;;;;14.08;100.00;100331.25;4875853;29;45290;-83
2023/12/21 13:46:14;;;;;;;;;1.00;1.00;;;;;13.82;100.00;100331.41;4870073;29;45619;-83
2023/12/21 13:48:42;;;;;;;;;4.25;2.50;;;;;13.90;100.00;100326.91;4870127;28;47140;-83
2023/12/21 13:51:08;;;;;;;;;5.00;3.00;;;;;13.88;100.00;100311.78;4886417;29;45421;-82
2023/12/21 13:53:51;;;;;;;;;2.75;2.75;;;;;14.10;100.00;100310.72;4870618;29;45533;-83
2023/12/21 13:56:17;;;;;;;;;5.00;1.00;;;;;14.11;100.00;100336.56;4864545;29;45490;-82
2023/12/21 13:58:55;;;;;;;;;2.00;2.00;;;;;14.22;100.00;100320.44;4867650;29;46942;-84
2023/12/21 14:01:40;;;;;;;;;2.00;1.00;;;;;14.42;100.00;100325.59;4873460;29;45340;-83
2023/12/21 14:04:07;;;;;;;;;3.67;1.00;;;;;14.01;100.00;100302.75;4887706;29;45330;-84
2023/12/21 14:06:35;;;;;;;;;2.75;1.50;;;;;14.23;100.00;100297.25;4855083;29;45810;-82
2023/12/21 14:09:37;;;;;;;;;2.00;2.00;;;;;14.39;99.74;100325.66;4870922;29;45444;-86
2023/12/21 14:12:09;;;;;;;;;1.00;1.00;;;;;14.29;100.00;100315.94;4855192;29;45549;-85
2023/12/21 14:14:36;;;;;;;;;1.75;1.00;;;;;14.24;98.89;100296.34;4854582;29;45495;-83
2023/12/21 14:17:03;;;;;;;;;4.50;2.75;;;;;14.36;98.69;100320.31;4852695;29;45871;-84
2023/12/21 14:26:32;;;;;;;;;2.00;1.75;;;;;14.25;99.25;100293.66;4872238;29;45439;-81
2023/12/21 14:29:05;;;;;;;;;1.75;1.75;;;;;14.38;99.16;100294.44;4857783;29;45299;-82
2023/12/21 14:31:31;;;;;;;;;1.50;1.50;;;;;14.36;98.05;100325.66;4855697;29;45532;-82
2023/12/21 14:33:56;;;;;;;;;1.00;1.00;;;;;14.29;97.38;100292.72;4872185;29;44810;-83
2023/12/21 14:36:23;;;;;;;;;3.00;2.25;;;;;14.49;96.19;100316.66;4853929;29;45783;-81
2023/12/21 14:39:30;;;;;;;;;0.00;0.00;;;;;14.70;96.26;100326.28;4872306;29;45450;-82
2023/12/21 14:45:11;;;;;;;;;3.00;3.00;;;;;14.38;95.19;100283.72;4864477;29;45359;-82
2023/12/21 14:48:05;;;;;;;;;2.50;1.75;;;;;14.62;95.25;100340.66;4860981;29;45308;-80
2023/12/21 14:50:37;;;;;;;;;2.00;1.00;;;;;14.52;94.49;100327.34;4860989;29;44850;-83
2023/12/21 14:53:03;;;;;;;;;2.00;2.00;;;;;14.23;94.18;100292.78;4847779;29;46908;-81
2023/12/21 14:55:41;;;;;;;;;3.00;1.50;;;;;14.59;97.32;100339.78;4873509;29;45418;-83
2023/12/21 14:58:28;;;;;;;;;;;;;;;;;;;;;
2023/12/21 15:01:08;;;;;;;;;;;;;;;;;;;;;
2023/12/21 15:04:31;;;;;;;;;1.50;1.00;;;;;14.58;95.49;100343.38;4863257;29;45353;-82
2023/12/21 15:07:12;;;;;;;;;2.00;2.00;;;;;14.36;95.03;100282.84;4877823;29;44814;-84
2023/12/21 15:09:38;;;;;;;;;1.00;1.00;;;;;14.32;93.72;100294.50;4879439;29;45580;-82
2023/12/21 15:12:05;;;;;;;;;1.50;1.00;;;;;14.72;92.24;100334.31;4877814;29;45454;-83